Nearby METAR Reports

 

KIAG - Niagara Falls, New York, USA
Distance from station: W 12mi, 20km
Updated: 04/20/2024 2:53am
Clear
Clear
 Wind from E
Wind: E 3 mph , 6 km/h
Temperature: 45°F , 7°C
Dew Point: 30°F , -1°C
Humidity: 57%
Barometer: 1015.2 hPa
Clouds: Clear
Visibility: 10 miles , 16 km
2024/04/20 06:53 KIAG 200653Z AUTO 08003KT 10SM CLR 07/M01 A2998 RMK AO2 SLP156 T00721006
KBUF - Buffalo/Cheektow, New York, USA
Distance from station: S 13mi, 21km
Updated: 04/20/2024 2:54am
Few Clouds
Few Clouds
 Wind from W
Wind: W 6 mph , 9 km/h
Temperature: 45°F , 7°C
Wind Chill: 42°F , 6°C
Dew Point: 34°F , 1°C
Humidity: 66%
Barometer: 1015.2 hPa
Clouds: Few Clouds
Visibility: 10 miles , 16 km
Cloud details: Few Clouds 12000 ft
2024/04/20 06:54 KBUF 200654Z 27005KT 10SM FEW120 07/01 A2998 RMK AO2 SLP157 T00720006 $
 
KROC - Rochester, New York, USA
Distance from station: E 51mi, 82km
Updated: 04/20/2024 2:54am
Few Clouds
Few Clouds
 Wind from NNW
Wind: NNW 12 mph , 19 km/h
Temperature: 45°F , 7°C
Wind Chill: 39°F , 4°C
Dew Point: 32°F , 0°C
Humidity: 61%
Barometer: 1015.2 hPa
Clouds: Few Clouds
Visibility: 10 miles , 16 km
Cloud details: Few Clouds 12000 ft
2024/04/20 06:54 KROC 200654Z 34010KT 10SM FEW120 07/00 A2998 RMK AO2 SLP156 T00670000
CYSN - St. Catharines A, Ontario, Canada
Distance from station: WNW 25mi, 40km
Updated: 04/19/2024 9:00pm
NOT Current
Mostly cloudy
Mostly cloudy
 Wind from WSW
Wind: WSW 6 mph , 9 km/h
Temperature: 50°F , 10°C
Wind Chill: 48°F , 9°C
Dew Point: 43°F , 6°C
Humidity: 76%
Barometer: 1013.5 hPa
Clouds: Mostly cloudy
Visibility: 15 miles , 24 km
Cloud details: Mostly cloudy 4800 ft
Mostly cloudy 15000 ft
2024/04/20 01:00 CYSN 200100Z 25005KT 15SM BKN048 BKN150 10/06 A2993 RMK SC5AC1 LAST STFD OBS/NXT 201100Z SLP139
 
KOLE - Olean, New York, USA
Distance from station: SSE 63mi, 102km
Updated: 04/20/2024 3:35am
Overcast
Overcast
 Wind from WNW
Wind: WNW 5 mph , 7 km/h
Temperature: 39°F , 4°C
Wind Chill: 35°F , 2°C
Dew Point: 28°F , -2°C
Humidity: 65%
Barometer: 1015.2 hPa
Clouds: Overcast
Visibility: 10 miles , 16 km
Cloud details: Overcast 11000 ft
2024/04/20 07:35 KOLE 200735Z AUTO 29004KT 10SM OVC110 04/M02 A2998 RMK AO2 LTG DSNT S
KJHW - Jamestown, New York, USA
Distance from station: SSW 74mi, 119km
Updated: 04/20/2024 2:56am
Overcast
Overcast
 Wind from W
Wind: W 7 mph , 11 km/h
Temperature: 43°F , 6°C
Wind Chill: 39°F , 4°C
Dew Point: 28°F , -2°C
Humidity: 57%
Barometer: 1016.3 hPa
Clouds: Overcast
Visibility: 10 miles , 16 km
Cloud details: Overcast 10000 ft
2024/04/20 06:56 KJHW 200656Z AUTO 27006KT 10SM OVC100 06/M02 A3001 RMK AO2 SLP172 T00611017
 
CWWZ - Port Weller (mar, Ontario, Canada
Distance from station: WNW 28mi, 45km
Updated: 04/20/2024 3:00am

 Wind from SE
Wind: SE 3 mph , 6 km/h
Temperature: 45°F , 7°C
Dew Point: 36°F , 2°C
Humidity: 71%
2024/04/20 07:00 CWWZ 200700Z AUTO 14003KT 07/02 RMK AO1 SLP155 T00720023 50003
CWPC - Port Colborne(Au, Ontario, Canada
Distance from station: WSW 33mi, 53km
Updated: 01/24/2023 6:00pm
NOT Current

 Wind from W
Wind: W 17 mph , 28 km/h
Temperature: 34°F , 1°C
Wind Chill: 23°F , -5°C
Dew Point: 27°F , -3°C
Humidity: 75%
2023/01/24 23:00 CWPC 242300Z AUTO 26015KT 01/M03 RMK AO1 PK WND 25024/2212 T00101031 50017
 
CXVN - Vineland (au8), Ontario, Canada
Distance from station: W 36mi, 58km
Updated: 04/20/2024 3:00am

 Wind from SW
Wind: SW 5 mph , 7 km/h
Temperature: 45°F , 7°C
Wind Chill: 42°F , 6°C
Dew Point: 34°F , 1°C
Humidity: 66%
2024/04/20 07:00 CXVN 200700Z AUTO 22004KT 07/01 RMK AO1 SLP156 T00730005 58001
CYTZ - Toronto Il Vor, Ontario, Canada
Distance from station: NW 50mi, 81km
Updated: 04/20/2024 3:00am
Overcast
Overcast
 Wind from SSW
Wind: SSW 8 mph , 13 km/h
Temperature: 43°F , 6°C
Wind Chill: 38°F , 3°C
Dew Point: 34°F , 1°C
Humidity: 71%
Barometer: 1014.2 hPa
Clouds: Overcast
Visibility: 9 miles , 14 km
Cloud details: Mostly cloudy 15000 ft
Overcast 17000 ft
2024/04/20 07:00 CYTZ 200700Z AUTO 20007KT 9SM BKN150 OVC170 06/01 A2995 RMK SLP147
 
CXTO - Toronto City, Ontario, Canada
Distance from station: NW 52mi, 84km
Updated: 04/20/2024 3:00am

 
Temperature: 45°F , 7°C
Dew Point: 30°F , -1°C
Humidity: 57%
2024/04/20 07:00 CXTO 200700Z AUTO 07/M01 RMK AO1 SLP144 T00691012 58008
KDKK - Dunkirk, New York, USA
Distance from station: SW 52mi, 84km
Updated: 04/20/2024 2:53am
Few Clouds
Few Clouds
 Wind from WSW
Wind: WSW 6 mph , 9 km/h
Temperature: 48°F , 9°C
Wind Chill: 45°F , 7°C
Dew Point: 34°F , 1°C
Humidity: 58%
Barometer: 1016.6 hPa
Clouds: Few Clouds
Visibility: 10 miles , 16 km
Cloud details: Few Clouds 11000 ft
2024/04/20 06:53 KDKK 200653Z AUTO 25005KT 10SM FEW110 09/01 A3002 RMK AO2 SLP166 T00890011
 
CYOO - Oshawa, Ontario, Canada
Distance from station: N 56mi, 90km
Updated: 04/20/2024 3:00am
Overcast
Overcast
 Wind from SW
Wind: SW 2 mph , 4 km/h
Temperature: 39°F , 4°C
Dew Point: 32°F , 0°C
Humidity: 75%
Barometer: 1013.9 hPa
Clouds: Overcast
Visibility: 9 miles , 14 km
Cloud details: Few Clouds 16000 ft
Overcast 19000 ft
2024/04/20 07:00 CYOO 200700Z AUTO 22002KT 9SM FEW160 OVC190 04/M00 A2994 RMK SLP142
CWWB - Burlington Piers, Ontario, Canada
Distance from station: WNW 56mi, 91km
Updated: 04/20/2024 3:00am

 Wind from S
Wind: S 6 mph , 9 km/h
Temperature: 46°F , 8°C
Wind Chill: 43°F , 6°C
Dew Point: 30°F , -1°C
Humidity: 53%
2024/04/20 07:00 CWWB 200700Z AUTO 19005KT 08/M01 RMK AO1 SLP150 T00811013 58005
 
CYYZ - Toronto/Pearson, Ontario, Canada
Distance from station: NW 60mi, 96km
Updated: 04/20/2024 3:00am
Mostly cloudy
Mostly cloudy
 Wind from SSW
Wind: SSW 6 mph , 9 km/h
Temperature: 43°F , 6°C
Wind Chill: 39°F , 4°C
Dew Point: 30°F , -1°C
Humidity: 61%
Barometer: 1013.9 hPa
Clouds: Mostly cloudy
Visibility: 15 miles , 24 km
Cloud details: Few Clouds 15000 ft
Mostly cloudy 17000 ft
2024/04/20 07:00 CYYZ 200700Z 20005KT 15SM FEW150 BKN170 06/M01 A2994 RMK AC2AC5 SLP144
CYKZ - Toronto Buttonvi, Ontario, Canada
Distance from station: NW 62mi, 99km
Updated: 01/03/2019 4:00am
NOT Current
Partly cloudy
Partly cloudy
 Wind from WSW
Wind: WSW 5 mph , 7 km/h
Temperature: 27°F , -3°C
Wind Chill: 21°F , -6°C
Dew Point: 23°F , -5°C
Humidity: 86%
Barometer: 1010.8 hPa
Clouds: Partly cloudy
Visibility: 15 miles , 24 km
Cloud details: Partly cloudy 4000 ft
2019/01/03 09:00 CYKZ 030900Z 25004KT 15SM SCT040 M03/M05 A2985 RMK SC3 LAST STFD OBS FAREWELL SLP118
 
CXHM - Hamilton Rbg Cs, Ontario, Canada
Distance from station: W 62mi, 100km
Updated: 04/20/2024 3:00am

 Wind from WSW
Wind: WSW 1 mph , 2 km/h
Temperature: 45°F , 7°C
Dew Point: 28°F , -2°C
Humidity: 53%
2024/04/20 07:00 CXHM 200700Z AUTO 25001KT 07/M02 RMK AO1 SLP151 T00651016 58006
KDSV - Dansville, New York, USA
Distance from station: SE 62mi, 100km
Updated: 04/20/2024 2:54am
Overcast
Overcast
 Wind from WNW
Wind: WNW 7 mph , 11 km/h, Gust: 18 mph , 30 km/h
Temperature: 52°F , 11°C
Dew Point: 34°F , 1°C
Humidity: 50%
Barometer: 1014.9 hPa
Clouds: Overcast
Visibility: 10 miles , 16 km
Cloud details: Overcast 12000 ft
2024/04/20 06:54 KDSV 200654Z AUTO 29006G16KT 10SM OVC120 11/01 A2997 RMK AO2 SLP158 T01110011
 
CYHM - Hamilton Airport, Ontario, Canada
Distance from station: W 63mi, 101km
Updated: 04/20/2024 3:00am
Mostly cloudy
Mostly cloudy
 Wind from S
Wind: S 6 mph , 9 km/h
Temperature: 41°F , 5°C
Wind Chill: 37°F , 3°C
Dew Point: 30°F , -1°C
Humidity: 66%
Barometer: 1014.6 hPa
Clouds: Mostly cloudy
Visibility: 15 miles , 24 km
Cloud details: Few Clouds 14000 ft
Mostly cloudy 18000 ft
2024/04/20 07:00 CYHM 200700Z 19005KT 15SM FEW140 BKN180 05/M01 A2996 RMK AC2AC5 MOON VISBL SLP152
CWNC - Cobourg (mars), Ontario, Canada
Distance from station: NNE 63mi, 102km
Updated: 04/19/2024 7:00pm
NOT Current

 Wind from WSW
Wind: WSW 2 mph , 4 km/h
Temperature: 46°F , 8°C
Dew Point: 37°F , 3°C
Humidity: 71%
2024/04/19 23:00 CWNC 192300Z AUTO 24002KT 08/03 RMK AO1 SLP212 T00810033 56007